الصفحة الرئيسية
METAR-TAF:

METAR-TAF

مطار :

كرمانشاه, إيران

دائرة عرض: 34-16N, خط طول: 047-07E, ارتفاع: 1320 متر

مراقبة الطقس الحالي

تاريخ ووقت الإصدار 17 دقيقة قبل الساعة 05:00UTC
ريح 6 عقدة من الشرق/الجنوب الشرقي
درجة الحرارة 29°درجة مئوية
الرطوبة 18%
ضغط 1017 hPa
الرؤية 10 كم أو أكثر
الغيوم لا تقل 1500 م ولا وجود لمزنة ركامية السحاب الأسود

METAR: OICC 190500Z 11006KT CAVOK 29/02 Q1017 A3004

زمن: 09:47 (05:17 UTC)

توقعات

تاريخ ووقت الإصدار 3ساعات و 2 دقيقة قبل الساعة 02:15UTC
التوقعات صالحة من19 الساعة 03 UTC إلى 19 الساعة 12 UTC
ريح 10 عقدة من الغرب
الرؤية 10 كم أو أكثر
غيوم قليلة على ارتفاع 4000 قدم

TAF: OICC 190215Z 1903/1912 27010KT 9999 FEW040

أرصاد الطقس والتوقعات من أكثر من 4000 مطار (تقارير الطقس للمطار METAR والتنبؤ بالطقس بالمطارTAF).

المحطات المتاحة هي النقط الصفراء والحمراء على الخريطة.

حرك المؤشر فوق النقطة لمعرفة اسم المحطة.

ثم انقر لمعرفة أرصاد وتوقعات الطقس.

لتغيير الخارطة: اضغط على الأزرار الخضراء مع رمز الصليب الأسود للتكبير. على الزر الأخضر مع شرطة للتصغير، أو على الأسهم الخضراء للخرائط المجاورة.


METAR-TAF: